Regatta — V7DM3 — position and weather

sailwx.info

Track history (hours):
 
Tides and Currents Weather Stations Pressure Air Temp Water Temp Dewpoint Dewpoint Depression Visibility Wind Speed Wind Dir Waves Ship Positions

Regatta

Last reported at 2020-Jan-24 07:31 UTC. Time now 2020-Jan-25 06:14 UTC.
Position S 41°50' E 174°36'.

Length 180 m; draft 6 m.

Type: Passenger vessel. MMSI: 538001664.

Date/timePositionNaut miles runAvg speedWind from/ knotsBaromVisibWave heightAir tempDewpointWater temp
2020-Jan-24 07:31S 41°50' E 174°36'816.4
2020-Jan-24 07:01S 41°42' E 174°40'27 7.1
2020-Jan-24 03:17S 41°16' E 174°47'0 0.0
2020-Jan-24 02:29S 41°16' E 174°47'0 0.0
2020-Jan-24 00:29S 41°16' E 174°47'0 0.0
2020-Jan-23 23:29S 41°16' E 174°47'0 0.0
2020-Jan-23 21:59S 41°16' E 174°47'25 4.5
2020-Jan-23 16:31S 41°37' E 175°04'  
2020-Jan-21 10:14S 37°25' E 177°38'4717.3
2020-Jan-21 07:31S 37°27' E 176°39'917.6
2020-Jan-21 07:00S 37°28' E 176°28'17 5.6
2020-Jan-21 03:56S 37°39' E 176°11'0 0.0
2020-Jan-21 03:26S 37°39' E 176°11'0 0.0
2020-Jan-21 02:56S 37°39' E 176°11'0 0.0
2020-Jan-21 01:26S 37°39' E 176°11'0 0.0
2020-Jan-21 00:56S 37°39' E 176°11'0 0.0
2020-Jan-20 20:56S 37°39' E 176°11'0 0.0
2020-Jan-20 18:30S 37°39' E 176°11'12 7.9
2020-Jan-20 17:00S 37°28' E 176°16'81 3.3
2020-Jan-19 16:21S 36°43' E 174°52'8010.3
2020-Jan-19 08:31S 37°19' E 176°22'2210.6
2020-Jan-19 06:28S 37°39' E 176°11'0 0.0
2020-Jan-19 04:28S 37°39' E 176°11'0 0.0
2020-Jan-19 03:28S 37°39' E 176°11'0 0.0
2020-Jan-19 00:58S 37°39' E 176°11'0 0.0
2020-Jan-19 00:28S 37°39' E 176°11'0 0.0
2020-Jan-18 21:58S 37°39' E 176°11'0 0.0
2020-Jan-18 21:28S 37°39' E 176°11'0 0.0
2020-Jan-18 20:28S 37°39' E 176°11'0 0.0
2020-Jan-18 19:28S 37°39' E 176°11'3 2.2
2020-Jan-18 18:00S 37°36' E 176°14'0 0.1
2020-Jan-18 17:30S 37°36' E 176°14'0 0.0
2020-Jan-18 16:30S 37°36' E 176°14'0 0.0
2020-Jan-18 15:30S 37°36' E 176°14'0 0.0
2020-Jan-18 15:00S 37°36' E 176°14'0 0.0
2020-Jan-18 13:30S 37°36' E 176°14'0 0.0
2020-Jan-18 10:30S 37°36' E 176°14'0 0.0
2020-Jan-18 09:57S 37°36' E 176°14'5 1.6
2020-Jan-18 06:30S 37°33' E 176°19'918.8
2020-Jan-18 06:00S 37°27' E 176°28'3718.4
2020-Jan-18 04:00S 37°25' E 177°15'259 5.5
2020-Jan-16 04:31S 41°19' E 174°51'4 7.3
2020-Jan-16 04:00S 41°16' E 174°47'0 0.0
2020-Jan-16 03:29S 41°16' E 174°47'0 0.0
2020-Jan-16 02:29S 41°16' E 174°47'0 0.0
2020-Jan-16 01:29S 41°16' E 174°47'0 0.0
2020-Jan-15 23:29S 41°16' E 174°47'0 0.0
2020-Jan-15 22:29S 41°16' E 174°47'0 0.0
2020-Jan-15 19:59S 41°16' E 174°47'0 0.0
2020-Jan-15 19:29S 41°16' E 174°47'1 0.7
2020-Jan-15 18:00S 41°16' E 174°49'  
Track history (hours):
 
Tides and Currents Weather Stations Pressure Air Temp Water Temp Dewpoint Dewpoint Depression Visibility Wind Speed Wind Dir Waves Ship Positions

Regatta

Last reported at 2020-Jan-24 07:31 UTC. Time now 2020-Jan-25 06:14 UTC.
Position S 41°50' E 174°36'.

Length 180 m; draft 6 m.

Type: Passenger vessel. MMSI: 538001664.

Date/timePositionNaut miles runAvg speedWind from/ knotsBaromVisibWave heightAir tempDewpointWater temp
2020-Jan-24 07:31S 41°50' E 174°36'816.4
2020-Jan-24 07:01S 41°42' E 174°40'27 7.1
2020-Jan-24 03:17S 41°16' E 174°47'0 0.0
2020-Jan-24 02:29S 41°16' E 174°47'0 0.0
2020-Jan-24 00:29S 41°16' E 174°47'0 0.0
2020-Jan-23 23:29S 41°16' E 174°47'0 0.0
2020-Jan-23 21:59S 41°16' E 174°47'25 4.5
2020-Jan-23 16:31S 41°37' E 175°04'  
2020-Jan-21 10:14S 37°25' E 177°38'4717.3
2020-Jan-21 07:31S 37°27' E 176°39'917.6
2020-Jan-21 07:00S 37°28' E 176°28'17 5.6
2020-Jan-21 03:56S 37°39' E 176°11'0 0.0
2020-Jan-21 03:26S 37°39' E 176°11'0 0.0
2020-Jan-21 02:56S 37°39' E 176°11'0 0.0
2020-Jan-21 01:26S 37°39' E 176°11'0 0.0
2020-Jan-21 00:56S 37°39' E 176°11'0 0.0
2020-Jan-20 20:56S 37°39' E 176°11'0 0.0
2020-Jan-20 18:30S 37°39' E 176°11'12 7.9
2020-Jan-20 17:00S 37°28' E 176°16'81 3.3
2020-Jan-19 16:21S 36°43' E 174°52'8010.3
2020-Jan-19 08:31S 37°19' E 176°22'2210.6
2020-Jan-19 06:28S 37°39' E 176°11'0 0.0
2020-Jan-19 04:28S 37°39' E 176°11'0 0.0
2020-Jan-19 03:28S 37°39' E 176°11'0 0.0
2020-Jan-19 00:58S 37°39' E 176°11'0 0.0
2020-Jan-19 00:28S 37°39' E 176°11'0 0.0
2020-Jan-18 21:58S 37°39' E 176°11'0 0.0
2020-Jan-18 21:28S 37°39' E 176°11'0 0.0
2020-Jan-18 20:28S 37°39' E 176°11'0 0.0
2020-Jan-18 19:28S 37°39' E 176°11'3 2.2
2020-Jan-18 18:00S 37°36' E 176°14'0 0.1
2020-Jan-18 17:30S 37°36' E 176°14'0 0.0
2020-Jan-18 16:30S 37°36' E 176°14'0 0.0
2020-Jan-18 15:30S 37°36' E 176°14'0 0.0
2020-Jan-18 15:00S 37°36' E 176°14'0 0.0
2020-Jan-18 13:30S 37°36' E 176°14'0 0.0
2020-Jan-18 10:30S 37°36' E 176°14'0 0.0
2020-Jan-18 09:57S 37°36' E 176°14'5 1.6
2020-Jan-18 06:30S 37°33' E 176°19'918.8
2020-Jan-18 06:00S 37°27' E 176°28'3718.4
2020-Jan-18 04:00S 37°25' E 177°15'259 5.5
2020-Jan-16 04:31S 41°19' E 174°51'4 7.3
2020-Jan-16 04:00S 41°16' E 174°47'0 0.0
2020-Jan-16 03:29S 41°16' E 174°47'0 0.0
2020-Jan-16 02:29S 41°16' E 174°47'0 0.0
2020-Jan-16 01:29S 41°16' E 174°47'0 0.0
2020-Jan-15 23:29S 41°16' E 174°47'0 0.0
2020-Jan-15 22:29S 41°16' E 174°47'0 0.0
2020-Jan-15 19:59S 41°16' E 174°47'0 0.0
2020-Jan-15 19:29S 41°16' E 174°47'1 0.7
2020-Jan-15 18:00S 41°16' E 174°49'  

Dump ship's entire track history